• Join FlightAware (Why Join?)
  • Login
  • US Flag 
06:36AM EST


 

Airport Tracker/Info


-or-


 

Live Flight TrackerFlight Track Log ✈ DAL3970 ✈ 22-Jul-2013 ✈ KDTW - KSYR

Flight Track Log - Related Links

Times and Time Zones

All times are in EDT time to prevent confusion due to time zone crossing. See the DAL3970 flight status page for this flight to view local times or setup timezone preferences in your user account.

Time Position Orientation Groundspeed Altitude Reporting Facility
EDT Latitude Longitude Course Direction KTS MPH feet Rate Location/Type
12:53PM 42.2017 -83.3583 56° Northeast 150 173 1,200  Level Cleveland Center
12:55PM 42.1431 -83.3611 182° South 203 234 3,300 1,680 Climbing Cleveland Center
12:56PM 42.0806 -83.3614 180° South 260 299 5,000 2,040 Climbing Cleveland Center
12:57PM 42.3139 -82.7638 75° East  Level FlightAware Approximate
12:57PM 42.0403 -83.2981 131° Southeast 267 307 7,600  Level Cleveland Center
12:58PM 42.3303 -82.6138 82° East  Level FlightAware Approximate
12:58PM 42.0958 -83.1492 63° Northeast 302 348 10,500  Level Cleveland Center
12:59PM 42.3572 -82.4690 56° Northeast  Level FlightAware Approximate
12:59PM 42.1403 -83.0333 63° Northeast 317 365 11,500  Level Cleveland Center
01:00PM 42.1886 -82.9092 62° Northeast 346 398 12,900 1,620 Climbing Cleveland Center
01:01PM 42.2369 -82.7847 62° Northeast 366 421 14,800 1,620 Climbing Cleveland Center
01:02PM 42.2850 -82.6600 62° Northeast 366 421 16,200 1,260 Climbing Cleveland Center
01:03PM 42.3353 -82.5353 61° Northeast 366 421 17,400 900 Climbing Cleveland Center
01:04PM 42.3647 -82.3900 75° East 385 443 18,100 600 Climbing Cleveland Center
01:05PM 42.3586 -82.2353 93° East 380 437 18,700 480 Climbing Cleveland Center
01:06PM 42.3542 -82.1003 93° East 394 453 19,100 480 Climbing Cleveland Center
01:07PM 42.3458 -81.9372 94° East 423 487 19,700 540 Climbing Cleveland Center
01:08PM 42.3372 -81.7769 94° East 434 499 20,200 600 Climbing Cleveland Center
01:09PM 42.3286 -81.5997 94° East 434 499 20,900 720 Climbing Cleveland Center
01:10PM 42.3217 -81.4397 93° East 434 499 21,700 720 Climbing Cleveland Center
01:11PM 42.3142 -81.2739 93° East 428 493 22,400 660 Climbing Cleveland Center
01:12PM 42.3069 -81.1108 93° East 433 498 23,100 660 Climbing Cleveland Center
01:13PM 42.2969 -80.9481 95° East 433 498 23,800 660 Climbing Cleveland Center
01:14PM 42.2892 -80.7881 94° East 433 498 24,500 660 Climbing Cleveland Center
01:15PM 42.2808 -80.6253 94° East 438 504 25,200 660 Climbing Cleveland Center
01:16PM 42.2664 -80.4514 96° East 446 513 25,900 600 Climbing Cleveland Center
01:17PM 42.2619 -80.3139 92° East 439 505 26,400 480 Climbing Cleveland Center
01:18PM 42.2531 -80.1511 94° East 434 499 26,900 480 Climbing Cleveland Center
01:19PM 42.2461 -79.9886 93° East 439 505 27,400 540 Climbing Cleveland Center
01:20PM 42.2344 -79.8036 95° East 439 505 28,000 540 Climbing Cleveland Center
01:21PM 42.2731 -79.6458 72° East 439 505 28,500 480 Climbing Cleveland Center
01:22PM 42.3133 -79.4908 71° East 434 499 29,000 240 Climbing Cleveland Center
01:23PM 42.3533 -79.3300 71° East 440 506 29,000  Level Cleveland Center
01:24PM 42.3972 -79.1578 71° East 459 528 29,000  Level Cleveland Center
01:25PM 42.4389 -78.9908 71° East 464 534 29,000  Level Cleveland Center
01:26PM 42.4742 -78.8464 72° East 463 533 29,000  Level Cleveland Center
01:27PM 42.5156 -78.6847 71° East 453 521 29,000 -540 Level Cleveland Center
01:28PM 42.5525 -78.5256 72° East 448 516 28,000 -1,080 Descending Cleveland Center
01:29PM 42.5911 -78.3664 72° East 448 516 26,900 -1,140 Descending Cleveland Center
01:30PM 42.6278 -78.2156 72° East 437 503 25,800 -1,200 Descending Cleveland Center
01:31PM 42.6622 -78.0675 72° East 422 486 24,600 -1,200 Descending Cleveland Center
01:32PM 42.6983 -77.9219 71° East 411 473 23,500 -1,200 Descending Cleveland Center
01:33PM 42.7344 -77.7678 72° East 411 473 22,300 -1,620 Descending Cleveland Center
01:34PM 42.7739 -77.5961 73° East 411 473 20,300 -1,980 Descending Cleveland Center
01:35PM 42.8075 -77.4475 73° East 418 481 18,400 -1,980 Descending Cleveland Center
01:36PM 42.8431 -77.3011 72° East 413 475 16,400 -1,980 Descending Cleveland Center
01:37PM 42.8722 -77.1636 74° East 400 460 14,500 -1,920 Descending Cleveland Center
01:38PM 42.9058 -77.0286 71° East 384 442 12,600 -1,260 Descending Cleveland Center
01:40PM 42.9594 -76.7844 73° East 356 410 11,000 -840 Descending Boston Center
01:41PM 42.9869 -76.6614 73° East 340 391 10,200 -1,260 Descending Boston Center
01:42PM 43.0119 -76.5522 73° East 293 337 8,500 -1,620 Descending Boston Center
01:44PM 43.0420 -76.3740 65° Northeast  Level FlightAware Approximate
01:45PM 43.0825 -76.2642 75° East 238 274 3,900  Level Boston Center
01:46PM 43.1092 -76.2144 54° Northeast 144 166 2,700 -960 Descending Boston Center
01:47PM 43.1028 -76.1544 98° East 145 167 2,000 -720 Descending Boston Center
01:51PM 43.1000 -76.1000 75° East  Level FlightAware Approximate